createdAt,value
2023-10-12T00:01:52.785Z,99034.78
2023-10-12T00:04:19.140Z,99026.28
2023-10-12T00:06:45.506Z,99035.50
2023-10-12T00:09:11.729Z,99032.34
2023-10-12T00:11:37.896Z,99035.56
2023-10-12T00:14:05.113Z,99027.06
2023-10-12T00:16:31.327Z,99040.84
2023-10-12T00:18:57.545Z,99030.34
2023-10-12T00:21:23.732Z,99030.72
2023-10-12T00:23:49.911Z,99025.09
2023-10-12T00:26:16.169Z,99021.84
2023-10-12T00:28:42.340Z,99032.72
2023-10-12T00:31:08.571Z,99039.75
2023-10-12T00:33:35.792Z,99038.44
2023-10-12T00:36:02.253Z,99029.56
2023-10-12T00:38:28.598Z,99027.50
2023-10-12T00:40:54.756Z,99029.91
2023-10-12T00:43:20.923Z,99032.72
2023-10-12T00:45:47.193Z,99028.31
2023-10-12T00:48:13.462Z,99029.88
2023-10-12T00:50:39.671Z,99025.00
2023-10-12T00:53:05.931Z,98997.41
2023-10-12T00:55:32.084Z,98992.94
2023-10-12T00:57:58.259Z,98983.53
2023-10-12T01:00:24.800Z,98978.13
2023-10-12T01:02:51.017Z,98982.03
2023-10-12T01:05:17.294Z,98994.41
2023-10-12T01:07:43.476Z,98989.75
2023-10-12T01:10:09.641Z,99004.50
2023-10-12T01:12:35.913Z,99001.22
2023-10-12T01:15:02.126Z,99004.38
2023-10-12T01:17:28.352Z,99026.19
2023-10-12T01:19:55.539Z,99027.34
2023-10-12T01:22:21.734Z,99028.41
2023-10-12T01:24:47.932Z,99033.59
2023-10-12T01:27:14.146Z,99044.16
2023-10-12T01:29:40.296Z,99057.38
2023-10-12T01:32:06.470Z,99061.03
2023-10-12T01:34:32.732Z,99045.28
2023-10-12T01:36:58.924Z,99059.31
2023-10-12T01:39:25.168Z,99055.38
2023-10-12T01:41:51.342Z,99064.59
2023-10-12T01:44:17.690Z,99058.84
2023-10-12T01:46:44.051Z,99052.81
2023-10-12T01:49:10.334Z,99051.69
2023-10-12T01:51:36.602Z,99050.03
2023-10-12T01:54:02.814Z,99069.88
2023-10-12T01:56:29.010Z,99072.09
2023-10-12T01:58:55.161Z,99080.13
2023-10-12T02:01:21.852Z,99084.81
2023-10-12T02:03:49.304Z,99084.25
2023-10-12T02:06:16.184Z,99091.34
2023-10-12T02:08:42.336Z,99102.47
2023-10-12T02:11:08.479Z,99112.50
2023-10-12T02:13:34.643Z,99126.94
2023-10-12T02:16:01.106Z,99128.84
2023-10-12T02:18:27.423Z,99129.09
2023-10-12T02:20:53.587Z,99135.56
2023-10-12T02:23:19.743Z,99142.75
2023-10-12T02:25:45.923Z,99154.56
2023-10-12T02:28:12.097Z,99155.69
2023-10-12T02:30:38.265Z,99165.84
2023-10-12T02:33:04.496Z,99169.03
2023-10-12T02:35:31.693Z,99181.31
2023-10-12T02:37:57.870Z,99178.34
2023-10-12T02:40:24.035Z,99175.22
2023-10-12T02:42:50.223Z,99179.56
2023-10-12T02:45:16.380Z,99181.38
2023-10-12T02:47:42.757Z,99177.22
2023-10-12T02:50:09.078Z,99181.97
2023-10-12T02:52:35.258Z,99186.63
2023-10-12T02:55:01.487Z,99189.50
2023-10-12T02:57:27.673Z,99187.59
2023-10-12T02:59:54.948Z,99193.69
2023-10-12T03:02:21.193Z,99193.94
2023-10-12T03:04:47.579Z,99199.84
2023-10-12T03:07:13.798Z,99199.56
2023-10-12T03:09:39.991Z,99216.16
2023-10-12T03:12:06.170Z,99204.38
2023-10-12T03:14:32.629Z,99191.47
2023-10-12T03:16:58.976Z,99182.09
2023-10-12T03:19:25.222Z,99183.75
2023-10-12T03:21:51.580Z,99183.19
2023-10-12T03:24:18.099Z,99183.28
2023-10-12T03:26:44.568Z,99168.38
2023-10-12T03:29:10.784Z,99160.75
2023-10-12T03:31:37.021Z,99159.84
2023-10-12T03:34:03.347Z,99165.56
2023-10-12T03:36:29.551Z,99158.41
2023-10-12T03:38:55.727Z,99148.78
2023-10-12T03:41:21.910Z,99136.00
2023-10-12T03:43:48.060Z,99129.44
2023-10-12T03:46:14.359Z,99123.72
2023-10-12T03:48:40.752Z,99116.00
2023-10-12T03:51:06.998Z,99119.63
2023-10-12T03:53:33.170Z,99124.91
2023-10-12T03:55:59.330Z,99125.09
2023-10-12T03:58:25.570Z,99143.03
2023-10-12T04:00:51.947Z,99143.41
2023-10-12T04:03:18.241Z,99151.38
2023-10-12T04:08:28.335Z,99152.56
2023-10-12T04:10:54.865Z,99146.09
2023-10-12T04:13:21.145Z,99135.84
2023-10-12T04:15:48.419Z,99130.94
2023-10-12T04:18:14.585Z,99128.38
2023-10-12T04:20:42.957Z,99121.22
2023-10-12T04:23:09.119Z,99124.41
2023-10-12T04:25:35.276Z,99136.56
2023-10-12T04:28:01.463Z,99136.75
2023-10-12T04:30:27.697Z,99133.81
2023-10-12T04:32:54.018Z,99129.38
2023-10-12T04:35:20.288Z,99143.78
2023-10-12T04:37:46.501Z,99144.03
2023-10-12T04:40:12.639Z,99147.59
2023-10-12T04:42:38.877Z,99147.38
2023-10-12T04:45:05.073Z,99144.31
2023-10-12T04:47:31.233Z,99148.97
2023-10-12T04:49:58.860Z,99144.25
2023-10-12T04:52:25.325Z,99154.50
2023-10-12T04:54:51.530Z,99153.56
2023-10-12T04:57:17.751Z,99162.84
2023-10-12T04:59:43.913Z,99163.66
2023-10-12T05:02:10.056Z,99159.19
2023-10-12T05:04:36.632Z,99155.69
2023-10-12T05:07:03.005Z,99173.50
2023-10-12T05:09:29.289Z,99185.94
2023-10-12T05:11:55.470Z,99197.75
2023-10-12T05:14:21.627Z,99188.28
2023-10-12T05:16:47.860Z,99185.47
2023-10-12T05:19:15.379Z,99195.44
2023-10-12T05:21:41.662Z,99194.47
2023-10-12T05:24:07.920Z,99197.88
2023-10-12T05:26:34.082Z,99202.91
2023-10-12T05:29:00.286Z,99202.31
2023-10-12T05:31:26.480Z,99217.56
2023-10-12T05:33:52.810Z,99222.75
2023-10-12T05:36:20.023Z,99223.09
2023-10-12T05:38:46.317Z,99214.91
2023-10-12T05:41:12.516Z,99219.13
2023-10-12T05:43:38.708Z,99214.09
2023-10-12T05:46:05.043Z,99213.25
2023-10-12T05:48:32.409Z,99218.88
2023-10-12T05:50:58.591Z,99217.59
2023-10-12T05:53:24.749Z,99211.97
2023-10-12T05:55:50.989Z,99212.22
2023-10-12T05:58:17.124Z,99208.56
2023-10-12T06:00:43.408Z,99205.53
2023-10-12T06:03:09.624Z,99207.88
2023-10-12T06:05:37.805Z,99215.59
2023-10-12T06:08:03.984Z,99204.84
2023-10-12T06:10:30.152Z,99204.69
2023-10-12T06:12:56.396Z,99204.78
2023-10-12T06:15:22.747Z,99210.06
2023-10-12T06:17:49.005Z,99214.97
2023-10-12T06:20:16.240Z,99220.44
2023-10-12T06:22:42.420Z,99226.06
2023-10-12T06:25:08.661Z,99229.03
2023-10-12T06:27:34.916Z,99230.44
2023-10-12T06:30:01.098Z,99239.34
2023-10-12T06:32:27.337Z,99236.53
2023-10-12T06:34:53.637Z,99231.63
2023-10-12T06:37:19.831Z,99238.06
2023-10-12T06:39:46.006Z,99243.34
2023-10-12T06:42:12.187Z,99236.44
2023-10-12T06:44:38.336Z,99236.91
2023-10-12T06:47:04.496Z,99245.91
2023-10-12T06:49:32.731Z,99239.81
2023-10-12T06:52:02.232Z,99249.53
2023-10-12T06:54:28.589Z,99245.78
2023-10-12T06:56:54.750Z,99240.31
2023-10-12T06:59:21.023Z,99238.34
2023-10-12T07:01:47.365Z,99248.13
2023-10-12T07:04:14.797Z,99239.81
2023-10-12T07:06:40.990Z,99258.66
2023-10-12T07:09:07.154Z,99255.38
2023-10-12T07:11:34.505Z,99255.16
2023-10-12T07:14:00.710Z,99261.16
2023-10-12T07:16:27.016Z,99256.66
2023-10-12T07:19:08.783Z,99256.66
2023-10-12T07:21:40.789Z,99261.81
2023-10-12T07:24:07.024Z,99259.94
2023-10-12T07:26:33.185Z,99260.16
2023-10-12T07:28:59.562Z,99266.97
2023-10-12T07:31:25.736Z,99279.38
2023-10-12T07:33:52.068Z,99279.72
2023-10-12T07:36:18.309Z,99287.34
2023-10-12T07:38:44.485Z,99282.38
2023-10-12T07:41:10.921Z,99294.63
2023-10-12T07:43:37.075Z,99298.56
2023-10-12T07:46:04.431Z,99295.16
2023-10-12T07:48:30.673Z,99302.06
2023-10-12T07:50:56.839Z,99287.19
2023-10-12T07:53:23.030Z,99289.66
2023-10-12T07:55:49.381Z,99294.69
2023-10-12T07:58:15.665Z,99292.81
2023-10-12T08:00:42.080Z,99307.94
2023-10-12T08:03:09.319Z,99304.78
2023-10-12T08:05:35.760Z,99298.78
2023-10-12T08:08:01.934Z,99296.78
2023-10-12T08:10:28.130Z,99304.25
2023-10-12T08:12:54.298Z,99302.16
2023-10-12T08:15:20.520Z,99308.59
2023-10-12T08:17:46.741Z,99316.56
2023-10-12T08:20:13.016Z,99307.06
2023-10-12T08:22:39.273Z,99317.50
2023-10-12T08:25:05.786Z,99320.91
2023-10-12T08:27:32.154Z,99314.09
2023-10-12T08:29:58.539Z,99318.97
2023-10-12T08:32:24.692Z,99313.63
2023-10-12T08:34:52.173Z,99315.47
2023-10-12T08:37:18.436Z,99312.41
2023-10-12T08:39:47.304Z,99317.69
2023-10-12T08:42:14.105Z,99308.25
2023-10-12T08:44:40.269Z,99301.28
2023-10-12T08:47:06.422Z,99301.75
2023-10-12T08:49:32.802Z,99310.41
2023-10-12T08:51:58.992Z,99300.91
2023-10-12T08:54:25.181Z,99299.72
2023-10-12T08:56:51.681Z,99307.00
2023-10-12T08:59:17.853Z,99307.88
2023-10-12T09:01:44.098Z,99307.13
2023-10-12T09:04:10.710Z,99307.88
2023-10-12T09:06:36.946Z,99313.97
2023-10-12T09:09:03.185Z,99306.34
2023-10-12T09:11:29.344Z,99314.53
2023-10-12T09:13:55.538Z,99313.63
2023-10-12T09:16:21.940Z,99315.25
2023-10-12T09:18:48.600Z,99323.16
2023-10-12T09:21:15.181Z,99323.16
2023-10-12T09:23:41.386Z,99317.63
2023-10-12T09:26:07.690Z,99333.47
2023-10-12T09:28:33.855Z,99329.38
2023-10-12T09:31:00.119Z,99321.84
2023-10-12T09:33:26.753Z,99321.66
2023-10-12T09:35:52.931Z,99321.81
2023-10-12T09:38:19.226Z,99328.66
2023-10-12T09:40:45.552Z,99328.22
2023-10-12T09:43:11.929Z,99324.28
2023-10-12T09:45:38.168Z,99324.94
2023-10-12T09:48:04.466Z,99331.56
2023-10-12T09:50:31.067Z,99332.00
2023-10-12T09:52:57.306Z,99332.22
2023-10-12T09:55:24.557Z,99333.63
2023-10-12T09:57:50.997Z,99327.66
2023-10-12T10:00:17.193Z,99329.38
2023-10-12T10:02:43.573Z,99320.56
2023-10-12T10:05:09.882Z,99319.56
2023-10-12T10:07:36.637Z,99315.88
2023-10-12T10:10:02.869Z,99322.84
2023-10-12T10:12:29.119Z,99322.25
2023-10-12T10:14:55.652Z,99322.47
2023-10-12T10:17:21.886Z,99326.03
2023-10-12T10:19:49.507Z,99324.69
2023-10-12T10:22:15.931Z,99316.75
2023-10-12T10:24:42.140Z,99328.03
2023-10-12T10:27:08.325Z,99321.56
2023-10-12T10:29:34.544Z,99334.25
2023-10-12T10:32:00.775Z,99327.66
2023-10-12T10:34:27.011Z,99328.41
2023-10-12T10:36:53.239Z,99326.31
2023-10-12T10:39:19.687Z,99336.19
2023-10-12T10:41:45.867Z,99319.94
2023-10-12T10:44:12.150Z,99323.78
2023-10-12T10:46:38.614Z,99317.09
2023-10-12T10:49:29.809Z,99319.19
2023-10-12T10:51:51.022Z,99316.72
2023-10-12T10:54:17.295Z,99312.81
2023-10-12T10:56:43.614Z,99309.97
2023-10-12T10:59:11.661Z,99322.00
2023-10-12T11:01:37.972Z,99314.44
2023-10-12T11:04:04.255Z,99315.84
2023-10-12T11:06:30.486Z,99316.75
2023-10-12T11:08:56.650Z,99307.75
2023-10-12T11:11:22.852Z,99299.50
2023-10-12T11:13:49.032Z,99294.47
2023-10-12T11:16:15.377Z,99298.19
2023-10-12T11:18:42.074Z,99293.44
2023-10-12T11:21:10.800Z,99280.06
2023-10-12T11:23:37.047Z,99287.25
2023-10-12T11:26:03.486Z,99286.00
2023-10-12T11:28:29.673Z,99276.41
2023-10-12T11:30:57.743Z,99268.50
2023-10-12T11:33:24.152Z,99267.56
2023-10-12T11:35:51.175Z,99269.50
2023-10-12T11:38:17.517Z,99265.31
2023-10-12T11:40:43.746Z,99251.19
2023-10-12T11:43:09.984Z,99246.16
2023-10-12T11:45:37.765Z,99248.34
2023-10-12T11:48:04.225Z,99250.16
2023-10-12T11:50:30.564Z,99248.28
2023-10-12T11:52:57.027Z,99253.25
2023-10-12T11:55:23.439Z,99253.13
2023-10-12T11:57:54.101Z,99243.59
2023-10-12T12:00:20.284Z,99242.06
2023-10-12T12:02:46.489Z,99232.06
2023-10-12T12:05:12.728Z,99236.53
2023-10-12T12:07:39.430Z,99230.50
2023-10-12T12:10:05.597Z,99216.72
2023-10-12T12:12:31.843Z,99212.38
2023-10-12T12:14:58.011Z,99219.22
2023-10-12T12:17:24.271Z,99235.31
2023-10-12T12:19:50.537Z,99227.94
2023-10-12T12:22:16.817Z,99222.88
2023-10-12T12:24:44.885Z,99207.66
2023-10-12T12:27:11.079Z,99203.72
2023-10-12T12:29:55.917Z,99202.59
2023-10-12T12:32:23.405Z,99193.69
2023-10-12T12:34:49.706Z,99194.00
2023-10-12T12:37:16.010Z,99199.75
2023-10-12T12:39:42.291Z,99203.41
2023-10-12T12:42:08.477Z,99207.31
2023-10-12T12:44:34.789Z,99204.91
2023-10-12T12:47:01.317Z,99198.63
2023-10-12T12:49:27.654Z,99198.72
2023-10-12T12:51:53.863Z,99199.25
2023-10-12T12:54:20.475Z,99207.28
2023-10-12T12:56:48.316Z,99206.16
2023-10-12T12:59:14.507Z,99208.53
2023-10-12T13:01:42.452Z,99202.81
2023-10-12T13:04:08.775Z,99205.94
2023-10-12T13:06:35.017Z,99207.28
2023-10-12T13:09:01.491Z,99206.78
2023-10-12T13:11:27.674Z,99209.50
2023-10-12T13:13:54.097Z,99215.59
2023-10-12T13:16:20.372Z,99208.66
2023-10-12T13:18:46.606Z,99217.91
2023-10-12T13:21:12.801Z,99223.56
2023-10-12T13:23:39.103Z,99215.41
2023-10-12T13:26:05.380Z,99217.28
2023-10-12T13:28:31.583Z,99215.34
2023-10-12T13:30:57.772Z,99220.16
2023-10-12T13:33:23.920Z,99218.47
2023-10-12T13:35:50.913Z,99215.63
2023-10-12T13:38:18.441Z,99214.81
2023-10-12T13:40:44.617Z,99217.28
2023-10-12T13:43:10.864Z,99215.34
2023-10-12T13:45:37.076Z,99216.38
2023-10-12T13:48:03.272Z,99213.53
2023-10-12T13:50:29.712Z,99221.19
2023-10-12T13:52:56.092Z,99209.72
2023-10-12T13:55:22.384Z,99213.91
2023-10-12T13:57:48.685Z,99212.00
2023-10-12T14:00:14.915Z,99216.78
2023-10-12T14:02:41.296Z,99210.78
2023-10-12T14:05:07.576Z,99203.34
2023-10-12T14:07:33.816Z,99200.53
2023-10-12T14:09:59.991Z,99205.88
2023-10-12T14:12:26.339Z,99207.50
2023-10-12T14:14:52.482Z,99208.09
2023-10-12T14:17:18.687Z,99217.25
2023-10-12T14:19:44.960Z,99206.47
2023-10-12T14:22:11.256Z,99207.97
2023-10-12T14:24:37.428Z,99203.97
2023-10-12T14:27:04.886Z,99201.00
2023-10-12T14:29:31.268Z,99201.13
2023-10-12T14:31:57.617Z,99203.53
2023-10-12T14:34:24.009Z,99200.69
2023-10-12T14:36:51.750Z,99194.03
2023-10-12T14:39:18.193Z,99190.38
2023-10-12T14:41:44.592Z,99199.69
2023-10-12T14:44:10.937Z,99205.03
2023-10-12T14:46:37.364Z,99206.50
2023-10-12T14:49:03.687Z,99196.66
2023-10-12T14:51:29.935Z,99199.91
2023-10-12T14:53:56.071Z,99197.91
2023-10-12T14:56:22.284Z,99196.78
2023-10-12T14:58:48.470Z,99190.25
2023-10-12T15:01:14.752Z,99189.66
2023-10-12T15:03:41.285Z,99181.34
2023-10-12T15:06:07.491Z,99172.19
2023-10-12T15:08:33.857Z,99167.44
2023-10-12T15:11:00.065Z,99175.63
2023-10-12T15:13:26.362Z,99179.78
2023-10-12T15:15:52.684Z,99204.88
2023-10-12T15:18:19.292Z,99200.88
2023-10-12T15:20:45.465Z,99197.59
2023-10-12T15:23:11.629Z,99202.41
2023-10-12T15:25:37.809Z,99191.28
2023-10-12T15:28:04.129Z,99190.56
2023-10-12T15:30:30.363Z,99189.50
2023-10-12T15:32:56.691Z,99182.91
2023-10-12T15:35:22.890Z,99184.53
2023-10-12T15:37:49.094Z,99197.38
2023-10-12T15:40:15.591Z,99190.47
2023-10-12T15:42:42.252Z,99194.94
2023-10-12T15:45:08.503Z,99200.50
2023-10-12T15:47:34.768Z,99195.44
2023-10-12T15:50:00.936Z,99200.63
2023-10-12T15:52:27.227Z,99203.72
2023-10-12T15:54:53.423Z,99203.31
2023-10-12T15:57:19.830Z,99211.28
2023-10-12T15:59:45.983Z,99209.94
2023-10-12T16:02:13.446Z,99209.34
2023-10-12T16:04:41.824Z,99208.88
2023-10-12T16:07:09.662Z,99221.78
2023-10-12T16:09:35.865Z,99205.69
2023-10-12T16:12:02.050Z,99208.06
2023-10-12T16:14:28.220Z,99207.97
2023-10-12T16:16:54.797Z,99219.59
2023-10-12T16:19:21.182Z,99217.09
2023-10-12T16:21:49.284Z,99223.56
2023-10-12T16:24:15.495Z,99196.72
2023-10-12T16:26:41.736Z,99209.38
2023-10-12T16:29:07.916Z,99212.28
2023-10-12T16:31:35.645Z,99216.28
2023-10-12T16:34:02.042Z,99227.47
2023-10-12T16:36:29.352Z,99234.06
2023-10-12T16:38:55.602Z,99230.44
2023-10-12T16:41:21.904Z,99226.44
2023-10-12T16:43:48.345Z,99222.44
2023-10-12T16:46:14.630Z,99218.72
2023-10-12T16:48:42.706Z,99209.72
2023-10-12T16:51:08.946Z,99221.72
2023-10-12T16:53:35.158Z,99226.81
2023-10-12T16:56:01.449Z,99223.56
2023-10-12T16:58:29.072Z,99219.13
2023-10-12T17:00:55.689Z,99217.56
2023-10-12T17:03:22.078Z,99226.47
2023-10-12T17:05:48.326Z,99231.38
2023-10-12T17:08:15.717Z,99240.50
2023-10-12T17:10:42.094Z,99234.50
2023-10-12T17:13:08.322Z,99224.88
2023-10-12T17:15:34.551Z,99228.88
2023-10-12T17:18:00.731Z,99226.03
2023-10-12T17:20:29.067Z,99232.84
2023-10-12T17:22:55.236Z,99230.31
2023-10-12T17:25:21.441Z,99229.31
2023-10-12T17:27:47.717Z,99228.31
2023-10-12T17:30:13.897Z,99228.41
2023-10-12T17:32:40.110Z,99237.47
2023-10-12T17:35:06.326Z,99228.56
2023-10-12T17:37:32.599Z,99236.47
2023-10-12T17:39:58.905Z,99243.66
2023-10-12T17:42:25.112Z,99249.91
2023-10-12T17:44:53.746Z,99234.28
2023-10-12T17:47:19.980Z,99249.22
2023-10-12T17:49:46.480Z,99241.09
2023-10-12T17:52:12.667Z,99252.81
2023-10-12T17:54:38.849Z,99244.38
2023-10-12T17:57:05.080Z,99245.66
2023-10-12T17:59:31.277Z,99248.38
2023-10-12T18:01:57.522Z,99241.91
2023-10-12T18:04:26.120Z,99233.16
2023-10-12T18:06:52.924Z,99247.44
2023-10-12T18:09:19.320Z,99240.06
2023-10-12T18:11:45.719Z,99246.31
2023-10-12T18:14:12.043Z,99247.94
2023-10-12T18:16:38.301Z,99246.50
2023-10-12T18:19:04.525Z,99244.22
2023-10-12T18:21:32.340Z,99238.69
2023-10-12T18:23:58.492Z,99243.78
2023-10-12T18:26:24.694Z,99231.78
2023-10-12T18:28:51.138Z,99240.69
2023-10-12T18:31:17.378Z,99244.78
2023-10-12T18:33:43.714Z,99240.06
2023-10-12T18:36:10.674Z,99241.81
2023-10-12T18:38:36.890Z,99247.22
2023-10-12T18:41:03.132Z,99235.75
2023-10-12T18:43:29.539Z,99235.34
2023-10-12T18:45:55.807Z,99234.22
2023-10-12T18:48:22.053Z,99239.31
2023-10-12T18:50:48.303Z,99241.22
2023-10-12T18:53:14.458Z,99240.03
2023-10-12T18:55:40.688Z,99243.03
2023-10-12T18:58:06.911Z,99249.47
2023-10-12T19:00:33.130Z,99252.22
2023-10-12T19:02:59.379Z,99247.13
2023-10-12T19:05:25.681Z,99249.69
2023-10-12T19:07:52.160Z,99249.09
2023-10-12T19:10:18.376Z,99256.97
2023-10-12T19:12:44.568Z,99251.44
2023-10-12T19:15:10.885Z,99247.53
2023-10-12T19:17:37.138Z,99251.63
2023-10-12T19:20:03.393Z,99234.13
2023-10-12T19:22:29.627Z,99238.13
2023-10-12T19:24:55.814Z,99240.63
2023-10-12T19:27:22.130Z,99248.00
2023-10-12T19:29:48.308Z,99244.84
2023-10-12T19:32:14.454Z,99253.84
2023-10-12T19:34:40.674Z,99249.47
2023-10-12T19:37:06.896Z,99250.66
2023-10-12T19:39:33.080Z,99241.41
2023-10-12T19:41:59.341Z,99248.75
2023-10-12T19:44:25.529Z,99246.13
2023-10-12T19:46:51.826Z,99229.69
2023-10-12T19:49:18.217Z,99239.78
2023-10-12T19:51:44.422Z,99233.47
2023-10-12T19:54:10.599Z,99231.38
2023-10-12T19:56:36.818Z,99230.50
2023-10-12T19:59:03.055Z,99241.94
2023-10-12T20:01:30.428Z,99237.94
2023-10-12T20:03:56.827Z,99237.84
2023-10-12T20:06:23.314Z,99242.75
2023-10-12T20:08:50.182Z,99239.69
2023-10-12T20:11:16.706Z,99237.22
2023-10-12T20:13:42.981Z,99238.13
2023-10-12T20:16:09.271Z,99239.69
2023-10-12T20:18:35.518Z,99240.84
2023-10-12T20:21:01.691Z,99237.22
2023-10-12T20:23:27.877Z,99246.50
2023-10-12T20:25:54.159Z,99241.66
2023-10-12T20:28:20.418Z,99243.75
2023-10-12T20:30:46.859Z,99245.38
2023-10-12T20:33:13.179Z,99250.66
2023-10-12T20:35:39.313Z,99245.38
2023-10-12T20:38:05.557Z,99252.22
2023-10-12T20:40:31.757Z,99250.59
2023-10-12T20:42:58.062Z,99248.59
2023-10-12T20:45:24.239Z,99247.47
2023-10-12T20:47:50.442Z,99245.47
2023-10-12T20:50:16.640Z,99248.03
2023-10-12T20:52:42.884Z,99246.13
2023-10-12T20:55:09.070Z,99245.38
2023-10-12T20:57:35.298Z,99255.09
2023-10-12T21:00:01.569Z,99249.56
2023-10-12T21:02:27.838Z,99249.56
2023-10-12T21:04:54.161Z,99236.28
2023-10-12T21:07:20.405Z,99227.47
2023-10-12T21:09:46.672Z,99235.19
2023-10-12T21:12:12.943Z,99224.78
2023-10-12T21:14:39.089Z,99234.44
2023-10-12T21:17:05.612Z,99235.25
2023-10-12T21:19:32.235Z,99232.06
2023-10-12T21:21:58.449Z,99215.47
2023-10-12T21:24:24.619Z,99230.06
2023-10-12T21:26:50.891Z,99226.88
2023-10-12T21:29:17.026Z,99234.25
2023-10-12T21:31:44.452Z,99229.53
2023-10-12T21:34:10.799Z,99225.44
2023-10-12T21:36:36.959Z,99223.06
2023-10-12T21:39:03.135Z,99220.31
2023-10-12T21:41:29.353Z,99228.63
2023-10-12T21:43:55.539Z,99218.66
2023-10-12T21:46:21.744Z,99229.06
2023-10-12T21:48:47.984Z,99226.34
2023-10-12T21:51:14.158Z,99223.06
2023-10-12T21:53:40.319Z,99227.94
2023-10-12T21:56:06.560Z,99225.13
2023-10-12T21:58:32.836Z,99215.06
2023-10-12T22:00:59.057Z,99221.06
2023-10-12T22:03:25.373Z,99217.13
2023-10-12T22:05:51.595Z,99214.31
2023-10-12T22:08:17.781Z,99200.00
2023-10-12T22:10:43.941Z,99204.38
2023-10-12T22:13:10.235Z,99194.38
2023-10-12T22:15:36.747Z,99199.09
2023-10-12T22:18:02.959Z,99205.56
2023-10-12T22:20:29.185Z,99198.28
2023-10-12T22:22:55.338Z,99192.03
2023-10-12T22:25:21.542Z,99199.72
2023-10-12T22:27:47.872Z,99196.38
2023-10-12T22:30:14.205Z,99185.09
2023-10-12T22:32:40.481Z,99197.28
2023-10-12T22:35:06.752Z,99188.19
2023-10-12T22:37:32.975Z,99179.94
2023-10-12T22:39:59.256Z,99183.09
2023-10-12T22:42:25.604Z,99184.91
2023-10-12T22:44:51.862Z,99194.09
2023-10-12T22:47:18.029Z,99187.75
2023-10-12T22:49:44.232Z,99190.91
2023-10-12T22:52:10.450Z,99192.50
2023-10-12T22:54:36.628Z,99189.75
2023-10-12T22:57:02.882Z,99189.38
2023-10-12T22:59:29.021Z,99196.66
2023-10-12T23:01:55.254Z,99204.19
2023-10-12T23:04:21.559Z,99202.00
2023-10-12T23:06:47.752Z,99206.13
2023-10-12T23:09:13.909Z,99205.81
2023-10-12T23:11:40.166Z,99202.91
2023-10-12T23:14:06.317Z,99190.53
2023-10-12T23:16:32.628Z,99198.19
2023-10-12T23:18:58.918Z,99197.34
2023-10-12T23:21:25.137Z,99193.88
2023-10-12T23:23:51.297Z,99196.09
2023-10-12T23:26:17.557Z,99201.69
2023-10-12T23:28:43.866Z,99204.50
2023-10-12T23:31:10.053Z,99201.69
2023-10-12T23:33:36.243Z,99209.00
2023-10-12T23:36:02.451Z,99206.72
2023-10-12T23:38:28.605Z,99212.72
2023-10-12T23:40:54.749Z,99200.72
2023-10-12T23:43:21.010Z,99203.91
2023-10-12T23:45:47.197Z,99206.72
2023-10-12T23:48:13.433Z,99204.72
2023-10-12T23:50:39.639Z,99204.44
2023-10-12T23:53:05.781Z,99200.53
2023-10-12T23:55:32.038Z,99197.00
2023-10-12T23:57:58.307Z,99200.19
